Time;durP1;ratioP1;P1;durP2;ratioP2;P2;SDS_P1;SDS_P2;PMS_P1;PMS_P2;Temp;Humidity;BMP_temperature;BMP_pressure;BME280_temperature;BME280_humidity;BME280_pressure;Samples;Min_cycle;Max_cycle;Signal;HPM_P1;HPM_P2
2023/12/11 00:00:43;;;;;;;12.63;6.47;;;;;;;-6.99;67.82;99941.81;5031736;28;20132;-62
2023/12/11 00:03:09;;;;;;;12.80;6.97;;;;;;;-7.02;68.08;99942.88;5031894;28;20511;-62
2023/12/11 00:05:38;;;;;;;17.30;6.97;;;;;;;-6.95;68.51;99943.22;5031422;28;20056;-63
2023/12/11 00:08:04;;;;;;;11.30;6.13;;;;;;;-7.07;67.89;99932.06;5014159;28;20052;-59
2023/12/11 00:10:29;;;;;;;11.65;5.82;;;;;;;-6.99;68.32;99942.63;4997676;28;20491;-61
2023/12/11 00:12:55;;;;;;;12.07;5.75;;;;;;;-7.01;68.11;99938.53;5031420;28;20072;-61
2023/12/11 00:15:21;;;;;;;14.45;6.55;;;;;;;-6.98;68.21;99935.72;5031179;28;20120;-61
2023/12/11 00:17:47;;;;;;;13.55;5.90;;;;;;;-6.91;67.89;99937.75;5031155;28;20396;-61
2023/12/11 00:20:13;;;;;;;12.80;6.60;;;;;;;-6.88;68.18;99934.94;5031438;28;20075;-60
2023/12/11 00:22:38;;;;;;;15.25;6.45;;;;;;;-6.83;67.94;99932.03;5031296;28;20090;-61
2023/12/11 00:25:05;;;;;;;14.10;6.70;;;;;;;-6.85;67.40;99936.50;5031189;28;20057;-61
2023/12/11 00:27:30;;;;;;;16.02;7.78;;;;;;;-6.87;67.52;99938.34;5031197;28;20045;-61
2023/12/11 00:29:58;;;;;;;14.25;6.85;;;;;;;-6.93;67.32;99934.47;5031344;28;20227;-62
2023/12/11 00:32:24;;;;;;;12.88;6.85;;;;;;;-6.92;67.82;99938.66;5012934;28;20065;-59
2023/12/11 00:34:49;;;;;;;12.93;6.65;;;;;;;-6.98;67.79;99928.81;5013564;28;20033;-63
2023/12/11 00:37:16;;;;;;;14.68;5.88;;;;;;;-6.95;68.10;99927.78;5013382;28;20048;-61
2023/12/11 00:39:41;;;;;;;11.10;6.50;;;;;;;-6.91;67.63;99927.44;5031109;28;20589;-61
2023/12/11 00:42:07;;;;;;;11.30;6.25;;;;;;;-6.90;67.08;99930.84;5031317;28;20132;-63
2023/12/11 00:44:36;;;;;;;14.27;7.65;;;;;;;-7.00;67.82;99941.00;5031331;28;20668;-61
2023/12/11 00:47:04;;;;;;;10.93;5.80;;;;;;;-6.99;67.20;99929.75;5031108;28;20045;-62
2023/12/11 00:49:30;;;;;;;11.75;5.72;;;;;;;-6.95;67.40;99925.19;5031068;28;20037;-61
2023/12/11 00:51:55;;;;;;;12.38;6.30;;;;;;;-6.95;67.20;99928.59;5030345;28;20511;-61
2023/12/11 00:54:21;;;;;;;11.80;6.55;;;;;;;-7.01;67.58;99928.22;5030909;28;20122;-62
2023/12/11 00:56:47;;;;;;;17.10;5.65;;;;;;;-6.97;67.42;99924.47;5030931;28;20037;-62
2023/12/11 00:59:12;;;;;;;14.25;6.20;;;;;;;-6.97;67.25;99921.91;5031297;28;20084;-59
2023/12/11 01:01:38;;;;;;;14.52;6.97;;;;;;;-6.87;68.48;99923.69;5030411;28;20083;-61
2023/12/11 01:04:04;;;;;;;17.27;7.28;;;;;;;-6.89;67.23;99927.31;5030220;28;20045;-62
2023/12/11 01:06:30;;;;;;;13.18;5.85;;;;;;;-6.86;67.58;99921.94;5013397;28;20033;-62
2023/12/11 01:08:56;;;;;;;15.73;4.97;;;;;;;-6.89;67.34;99919.59;5012814;28;20510;-62
2023/12/11 01:11:21;;;;;;;12.57;6.57;;;;;;;-6.87;67.91;99915.97;5030500;28;20144;-62
2023/12/11 01:13:47;;;;;;;14.65;6.40;;;;;;;-6.80;67.99;99908.59;5030782;28;20057;-60
2023/12/11 01:16:13;;;;;;;16.45;6.63;;;;;;;-6.83;67.08;99908.00;5031283;28;20049;-62
2023/12/11 01:18:39;;;;;;;14.07;6.20;;;;;;;-6.89;67.57;99909.28;5031141;28;20052;-61
2023/12/11 01:21:04;;;;;;;10.48;5.30;;;;;;;-6.96;67.50;99906.34;5031282;28;20545;-63
2023/12/11 01:23:30;;;;;;;16.00;7.05;;;;;;;-6.91;68.30;99901.66;5030877;28;20140;-59
2023/12/11 01:25:56;;;;;;;11.57;6.05;;;;;;;-6.92;67.69;99894.84;5030047;28;20037;-60
2023/12/11 01:28:21;;;;;;;13.90;6.82;;;;;;;-6.95;68.43;99897.66;5031043;28;20057;-59
2023/12/11 01:30:47;;;;;;;19.83;6.60;;;;;;;-6.98;68.17;99892.72;5030486;28;20041;-63
2023/12/11 01:33:13;;;;;;;14.98;6.68;;;;;;;-6.90;68.14;99887.84;5013078;28;20407;-61
2023/12/11 01:35:39;;;;;;;12.43;6.78;;;;;;;-7.02;67.98;99893.09;5030814;28;20123;-63
2023/12/11 01:38:05;;;;;;;12.88;6.28;;;;;;;-6.97;68.21;99893.53;5030937;28;20474;-61
2023/12/11 01:40:31;;;;;;;14.13;6.68;;;;;;;-7.14;68.05;99863.88;5030667;28;20034;-61
2023/12/11 01:43:10;;;;;;;13.75;6.88;;;;;;;-6.97;68.49;99894.41;5031097;28;20046;-61
2023/12/11 01:45:36;;;;;;;11.00;5.93;;;;;;;-6.98;68.03;99899.66;5013148;28;20038;-60
2023/12/11 01:48:02;;;;;;;16.70;7.28;;;;;;;-6.93;69.26;99892.41;5030417;28;20517;-62
2023/12/11 01:50:28;;;;;;;16.95;7.18;;;;;;;-6.90;69.04;99892.19;5031318;28;20037;-61
2023/12/11 01:52:53;;;;;;;14.60;7.28;;;;;;;-6.83;69.58;99893.34;5034569;28;20056;-59
2023/12/11 01:55:19;;;;;;;16.10;7.15;;;;;;;-6.78;69.02;99887.88;5034312;28;20120;-62
2023/12/11 01:57:45;;;;;;;15.77;6.95;;;;;;;-6.86;68.85;99888.44;5034248;28;20053;-62
2023/12/11 02:00:11;;;;;;;15.70;7.13;;;;;;;-6.89;69.56;99886.06;5016559;28;20497;-61
2023/12/11 02:02:37;;;;;;;18.20;7.63;;;;;;;-6.90;69.19;99884.44;5000156;28;20049;-61
2023/12/11 02:05:03;;;;;;;11.23;5.97;;;;;;;-6.94;69.64;99886.44;5016270;28;20041;-62
2023/12/11 02:07:29;;;;;;;17.58;7.75;;;;;;;-6.97;70.02;99888.38;5034038;28;20128;-61
2023/12/11 02:09:55;;;;;;;18.85;7.53;;;;;;;-7.13;69.95;99868.91;5016623;28;20045;-60
2023/12/11 02:12:21;;;;;;;15.88;7.82;;;;;;;-6.87;70.27;99902.25;5016278;28;20037;-60
2023/12/11 02:14:46;;;;;;;13.45;7.10;;;;;;;-6.82;69.19;99909.63;5015885;28;20045;-60
2023/12/11 02:17:13;;;;;;;18.13;7.38;;;;;;;-6.82;70.08;99905.34;5034086;28;20046;-61
2023/12/11 02:19:39;;;;;;;15.82;7.63;;;;;;;-6.81;69.79;99908.72;5033770;28;20049;-62
2023/12/11 02:22:04;;;;;;;14.10;7.13;;;;;;;-6.90;70.09;99907.66;5016150;28;20041;-60
2023/12/11 02:24:38;;;;;;;15.90;8.07;;;;;;;-6.79;70.59;99912.00;5033549;28;20195;-59
2023/12/11 02:27:04;;;;;;;19.95;7.32;;;;;;;-6.77;70.31;99910.13;5015742;28;20548;-61
2023/12/11 02:29:30;;;;;;;15.38;7.93;;;;;;;-6.84;70.06;99896.06;5033605;28;20048;-62
2023/12/11 02:31:55;;;;;;;13.60;7.35;;;;;;;-6.84;70.38;99896.06;5033521;28;20041;-60
2023/12/11 02:34:21;;;;;;;17.58;7.68;;;;;;;-6.91;70.62;99898.25;5033473;28;20047;-62
2023/12/11 02:36:48;;;;;;;19.83;8.32;;;;;;;-6.88;71.05;99890.31;5014963;28;20045;-61
2023/12/11 02:39:14;;;;;;;17.20;7.63;;;;;;;-6.87;71.34;99887.63;5033767;28;20091;-61
2023/12/11 02:41:39;;;;;;;20.88;7.45;;;;;;;-6.86;71.25;99891.00;5033619;28;20042;-62
2023/12/11 02:44:05;;;;;;;19.35;8.85;;;;;;;-6.92;71.61;99881.16;5033263;28;20049;-59
2023/12/11 02:46:31;;;;;;;20.08;7.93;;;;;;;-6.90;71.56;99889.59;5033224;28;20037;-61
2023/12/11 02:48:56;;;;;;;20.55;8.05;;;;;;;-6.82;71.93;99883.84;5015492;28;20446;-59
2023/12/11 02:51:22;;;;;;;18.40;8.52;;;;;;;-6.91;71.79;99881.06;5032753;28;20132;-62
2023/12/11 02:53:48;;;;;;;18.63;8.05;;;;;;;-6.99;72.11;99873.06;5033161;28;20396;-62
2023/12/11 02:56:13;;;;;;;17.58;8.20;;;;;;;-6.98;72.57;99873.88;4999151;28;20570;-61
2023/12/11 02:58:39;;;;;;;18.48;8.65;;;;;;;-7.01;72.83;99871.53;5033291;28;20049;-62
2023/12/11 03:01:05;;;;;;;21.80;9.55;;;;;;;-6.96;73.14;99869.44;5032619;28;20515;-61
2023/12/11 03:03:31;;;;;;;17.25;8.85;;;;;;;-6.88;72.35;99880.81;5013576;28;20541;-61
2023/12/11 03:05:58;;;;;;;17.75;8.60;;;;;;;-6.84;72.35;99886.56;5015125;28;20041;-61
2023/12/11 03:08:23;;;;;;;18.23;7.90;;;;;;;-6.90;72.74;99887.84;5033110;28;20057;-61
2023/12/11 03:10:49;;;;;;;13.73;8.70;;;;;;;-6.91;73.22;99885.34;5032807;28;20045;-63
2023/12/11 03:13:14;;;;;;;16.05;8.25;;;;;;;-6.76;73.47;99889.41;4998604;28;20538;-62
2023/12/11 03:15:40;;;;;;;15.52;7.72;;;;;;;-6.74;72.21;99884.94;5014909;28;20397;-62
2023/12/11 03:18:06;;;;;;;20.60;8.65;;;;;;;-6.80;72.03;99898.28;5032767;28;20156;-61
2023/12/11 03:20:32;;;;;;;15.88;8.95;;;;;;;-6.76;72.67;99893.75;5014874;28;20037;-62
2023/12/11 03:22:57;;;;;;;19.45;9.05;;;;;;;-6.75;72.81;99895.38;5032576;28;20098;-61
2023/12/11 03:25:23;;;;;;;21.52;9.63;;;;;;;-6.69;72.18;99898.31;5035349;28;20132;-60
2023/12/11 03:27:49;;;;;;;20.00;9.70;;;;;;;-6.59;72.29;99895.03;5052368;28;20055;-61
2023/12/11 03:30:14;;;;;;;19.65;9.32;;;;;;;-6.58;71.88;99894.13;5052606;28;20044;-62
2023/12/11 03:32:40;;;;;;;21.88;9.10;;;;;;;-6.61;72.32;99897.75;5052215;28;20041;-62
2023/12/11 03:35:06;;;;;;;19.88;9.38;;;;;;;-6.73;71.94;99902.06;5052156;28;20052;-61
2023/12/11 03:37:31;;;;;;;19.58;9.45;;;;;;;-6.63;72.33;99899.63;5052200;28;20076;-61
2023/12/11 03:39:57;;;;;;;17.48;8.90;;;;;;;-6.67;71.88;99899.03;5052342;28;20116;-63
2023/12/11 03:42:23;;;;;;;21.48;8.25;;;;;;;-6.69;72.21;99894.91;5036845;28;20057;-61
2023/12/11 03:44:49;;;;;;;19.90;8.38;;;;;;;-6.71;72.20;99895.00;4997895;28;20049;-62
2023/12/11 03:47:15;;;;;;;20.20;8.98;;;;;;;-6.61;72.45;99895.16;5014573;28;20050;-62
2023/12/11 03:49:40;;;;;;;15.40;7.20;;;;;;;-6.64;71.61;99882.50;5031288;28;20412;-62
2023/12/11 03:52:06;;;;;;;18.13;7.50;;;;;;;-6.69;72.04;99884.59;5027531;28;20183;-61
2023/12/11 03:54:32;;;;;;;17.15;8.75;;;;;;;-6.88;72.75;99890.31;5031455;28;20053;-62
2023/12/11 03:56:58;;;;;;;17.80;9.43;;;;;;;-6.84;72.21;99886.56;5033163;28;20037;-62
2023/12/11 03:59:24;;;;;;;15.90;7.60;;;;;;;-6.79;72.88;99887.06;5033767;28;20040;-60
2023/12/11 04:01:50;;;;;;;19.23;8.63;;;;;;;-6.76;72.72;99875.69;5014953;28;20042;-62
2023/12/11 04:04:16;;;;;;;17.23;7.72;;;;;;;-6.77;72.69;99882.59;5014069;28;20049;-61
2023/12/11 04:06:41;;;;;;;19.58;9.07;;;;;;;-6.80;72.47;99887.97;5024928;28;20052;-62
2023/12/11 04:09:07;;;;;;;21.30;9.43;;;;;;;-6.77;72.98;99894.66;5030311;28;20045;-61
2023/12/11 04:11:34;;;;;;;19.48;8.38;;;;;;;-6.74;73.48;99884.13;5031047;28;20068;-60
2023/12/11 04:14:00;;;;;;;14.02;7.63;;;;;;;-6.66;73.67;99885.19;5013330;28;20037;-60
2023/12/11 04:16:26;;;;;;;20.63;8.95;;;;;;;-6.70;72.96;99882.97;5031109;28;20047;-61
2023/12/11 04:18:52;;;;;;;19.25;8.80;;;;;;;-6.77;73.87;99885.16;5027716;28;20053;-62
2023/12/11 04:21:18;;;;;;;20.90;8.00;;;;;;;-6.84;73.99;99884.00;5029604;28;20144;-63
2023/12/11 04:23:44;;;;;;;14.15;6.95;;;;;;;-6.76;73.68;99886.81;5028423;28;20079;-61
2023/12/11 04:26:09;;;;;;;16.80;9.13;;;;;;;-6.80;74.44;99884.56;5029220;28;20045;-62
2023/12/11 04:28:35;;;;;;;14.98;7.65;;;;;;;-6.78;74.10;99880.13;5028981;28;20051;-63
2023/12/11 04:31:01;;;;;;;21.23;8.93;;;;;;;-6.76;73.75;99883.44;5027727;28;20069;-61
2023/12/11 04:33:26;;;;;;;17.85;8.52;;;;;;;-6.74;72.77;99890.09;5029054;28;20128;-62
2023/12/11 04:35:52;;;;;;;17.17;8.93;;;;;;;-6.71;73.15;99884.69;5012281;28;20041;-61
2023/12/11 04:38:18;;;;;;;21.65;8.80;;;;;;;-6.65;72.95;99904.06;5006361;28;20049;-62
2023/12/11 04:40:43;;;;;;;16.08;8.32;;;;;;;-6.70;72.17;99899.25;5011424;28;20038;-63
2023/12/11 04:43:09;;;;;;;16.45;8.35;;;;;;;-6.73;72.23;99902.06;5016448;28;20128;-61
2023/12/11 04:45:35;;;;;;;15.60;8.25;;;;;;;-6.71;72.62;99892.44;5030703;28;20422;-62
2023/12/11 04:48:00;;;;;;;16.80;8.48;;;;;;;-6.63;72.32;99900.44;5013257;28;20613;-62
2023/12/11 04:50:26;;;;;;;19.17;7.80;;;;;;;-6.64;72.38;99896.22;5030846;28;20132;-61
2023/12/11 04:52:52;;;;;;;16.52;7.18;;;;;;;-6.66;71.69;99895.50;5030349;28;20046;-59
2023/12/11 04:55:17;;;;;;;19.08;7.88;;;;;;;-6.60;72.21;99889.06;5030657;28;20045;-61
2023/12/11 04:57:44;;;;;;;15.00;7.47;;;;;;;-6.53;71.88;99890.25;5030739;28;20128;-61
2023/12/11 05:00:10;;;;;;;16.05;7.22;;;;;;;-6.44;71.57;99884.41;5030245;28;20129;-62
2023/12/11 05:02:36;;;;;;;20.08;8.20;;;;;;;-6.48;71.04;99877.00;5022075;28;20461;-61
2023/12/11 05:05:01;;;;;;;17.50;8.40;;;;;;;-6.39;71.45;99891.78;5030984;28;20140;-65
2023/12/11 05:07:29;;;;;;;13.98;6.20;;;;;;;-6.46;70.74;99893.19;5030166;28;20045;-61
2023/12/11 05:09:55;;;;;;;20.80;8.20;;;;;;;-6.46;70.61;99885.47;5012905;28;20495;-64
2023/12/11 05:12:20;;;;;;;14.15;7.80;;;;;;;-6.43;71.34;99887.81;5030414;28;20080;-64
2023/12/11 05:14:46;;;;;;;24.08;8.02;;;;;;;-6.47;70.62;99888.94;5012931;28;20038;-61
2023/12/11 05:17:12;;;;;;;16.85;8.13;;;;;;;-6.52;70.73;99885.91;5030757;28;20184;-62
2023/12/11 05:19:37;;;;;;;20.25;7.57;;;;;;;-6.50;70.87;99884.88;5011826;28;20037;-62
2023/12/11 05:22:03;;;;;;;15.82;7.57;;;;;;;-6.47;70.52;99878.63;4996642;28;20037;-63
2023/12/11 05:24:29;;;;;;;21.52;8.52;;;;;;;-6.47;70.77;99866.59;5030327;28;20061;-61
2023/12/11 05:26:55;;;;;;;25.95;8.35;;;;;;;-6.53;70.93;99872.22;5033724;28;20061;-63
2023/12/11 05:29:20;;;;;;;16.50;8.02;;;;;;;-6.49;71.14;99871.03;5033268;28;20507;-63
2023/12/11 05:31:46;;;;;;;18.20;7.90;;;;;;;-6.50;71.01;99858.25;5016109;28;20137;-62
2023/12/11 05:34:12;;;;;;;19.98;9.05;;;;;;;-6.45;70.84;99861.28;5033092;28;20049;-62
2023/12/11 05:36:38;;;;;;;15.85;7.85;;;;;;;-6.39;70.58;99860.81;5016591;28;20444;-62
2023/12/11 05:39:03;;;;;;;15.45;7.43;;;;;;;-6.48;70.92;99869.28;4998087;28;20128;-61
2023/12/11 05:41:29;;;;;;;21.33;7.90;;;;;;;-6.43;70.83;99864.59;5016504;28;20120;-62
2023/12/11 05:43:57;;;;;;;16.65;6.55;;;;;;;-6.45;70.64;99866.44;5023823;28;20483;-60
2023/12/11 05:46:23;;;;;;;11.23;6.97;;;;;;;-6.47;71.11;99858.84;5013989;28;20340;-61
2023/12/11 05:48:49;;;;;;;19.02;8.35;;;;;;;-6.41;71.32;99871.28;4997873;28;20625;-60
2023/12/11 05:51:15;;;;;;;16.33;8.45;;;;;;;-6.35;71.14;99863.97;5023516;28;20038;-61
2023/12/11 05:53:41;;;;;;;16.92;8.05;;;;;;;-6.28;70.71;99873.72;5013769;28;20135;-63
2023/12/11 05:56:07;;;;;;;20.60;8.50;;;;;;;-6.24;70.54;99862.22;5031381;28;20040;-64
2023/12/11 05:58:33;;;;;;;19.23;7.97;;;;;;;-6.24;70.77;99861.41;5016002;28;20064;-63
2023/12/11 06:00:59;;;;;;;21.23;8.15;;;;;;;-6.30;70.56;99856.72;5013608;28;20045;-63
2023/12/11 06:03:26;;;;;;;16.65;8.07;;;;;;;-6.29;70.66;99853.22;4999565;28;20135;-62
2023/12/11 06:05:57;;;;;;;17.02;8.18;;;;;;;-6.36;70.49;99852.03;5033167;28;20116;-62
2023/12/11 06:08:24;;;;;;;21.08;7.97;;;;;;;-6.42;71.40;99848.16;5015690;28;20045;-64
2023/12/11 06:10:51;;;;;;;20.85;8.13;;;;;;;-6.37;71.32;99853.81;5015741;28;20511;-63
2023/12/11 06:13:17;;;;;;;17.77;7.85;;;;;;;-6.27;71.27;99848.75;5035772;28;20569;-64
2023/12/11 06:15:43;;;;;;;14.45;7.03;;;;;;;-6.26;70.63;99846.06;5033537;28;20049;-64
2023/12/11 06:18:09;;;;;;;19.35;7.57;;;;;;;-6.19;71.31;99844.63;5015657;28;20547;-63
2023/12/11 06:20:34;;;;;;;19.20;8.43;;;;;;;-6.11;71.07;99845.81;5033173;28;20140;-64
2023/12/11 06:23:00;;;;;;;20.77;8.48;;;;;;;-6.07;70.31;99849.78;5033401;28;20057;-65
2023/12/11 06:25:26;;;;;;;14.63;8.07;;;;;;;-6.01;70.05;99849.31;5027121;28;20065;-65
2023/12/11 06:27:52;;;;;;;18.02;8.48;;;;;;;-5.96;70.36;99849.78;5033329;28;20115;-61
2023/12/11 06:30:19;;;;;;;23.17;8.90;;;;;;;-5.85;70.46;99848.88;4964022;28;20042;-64
2023/12/11 06:32:45;;;;;;;19.38;7.80;;;;;;;-5.88;68.78;99844.81;4999014;28;20571;-63
2023/12/11 06:35:10;;;;;;;17.63;8.45;;;;;;;-5.93;69.73;99853.88;5033221;28;20068;-64
2023/12/11 06:37:36;;;;;;;13.95;7.03;;;;;;;-5.91;69.97;99847.63;5032913;28;20083;-60
2023/12/11 06:40:03;;;;;;;22.65;8.30;;;;;;;-5.95;70.83;99841.91;5033033;28;20049;-62
2023/12/11 06:42:34;;;;;;;16.48;8.13;;;;;;;-5.84;70.55;99841.03;5031909;28;20052;-61
2023/12/11 06:45:00;;;;;;;16.52;7.93;;;;;;;-5.78;69.97;99843.13;5032923;28;20045;-59
2023/12/11 06:47:26;;;;;;;21.00;8.30;;;;;;;-5.76;69.80;99838.66;5031703;28;20091;-62
2023/12/11 06:49:52;;;;;;;16.42;9.07;;;;;;;-5.63;69.90;99833.34;5033034;28;20034;-60
2023/12/11 06:52:18;;;;;;;14.02;7.38;;;;;;;-5.66;69.22;99835.34;5032957;28;20114;-61
2023/12/11 06:54:44;;;;;;;19.98;9.20;;;;;;;-5.60;69.69;99832.28;5032730;28;20550;-63
2023/12/11 06:57:09;;;;;;;19.70;8.43;;;;;;;-5.54;68.97;99826.63;5032615;28;20045;-62
2023/12/11 06:59:35;;;;;;;18.65;8.45;;;;;;;-5.46;69.76;99826.81;5031745;28;20033;-61
2023/12/11 07:02:02;;;;;;;26.05;10.25;;;;;;;-5.30;69.49;99826.41;5032246;28;20037;-62
2023/12/11 07:04:27;;;;;;;22.65;9.88;;;;;;;-5.31;68.46;99833.34;5032360;28;20037;-62
2023/12/11 07:06:53;;;;;;;29.52;9.93;;;;;;;-5.30;67.56;99826.41;5032130;28;20414;-63
2023/12/11 07:09:19;;;;;;;33.17;12.27;;;;;;;-5.32;68.36;99830.88;5016584;28;20037;-61
2023/12/11 07:11:45;;;;;;;25.90;10.23;;;;;;;-5.21;68.13;99830.00;5031596;28;20037;-63
2023/12/11 07:14:10;;;;;;;32.55;12.55;;;;;;;-5.27;68.05;99820.97;5032041;28;20049;-61
2023/12/11 07:16:36;;;;;;;32.58;11.13;;;;;;;-5.26;67.56;99826.03;5032023;28;20045;-61
2023/12/11 07:19:06;;;;;;;21.98;8.48;;;;;;;-5.22;67.09;99830.94;5032441;28;20067;-60
2023/12/11 07:21:32;;;;;;;19.60;9.82;;;;;;;-5.23;67.51;99831.91;5032945;28;20055;-63
2023/12/11 07:23:58;;;;;;;33.67;10.43;;;;;;;-5.28;67.18;99830.50;5032322;28;20458;-62
2023/12/11 07:26:24;;;;;;;29.90;12.35;;;;;;;-5.32;67.49;99820.56;5032407;28;20099;-61
2023/12/11 07:28:49;;;;;;;26.63;9.75;;;;;;;-5.24;67.22;99825.88;5014406;28;20056;-61
2023/12/11 07:31:15;;;;;;;25.15;9.77;;;;;;;-5.15;67.51;99824.31;5032526;28;20041;-70
2023/12/11 07:33:43;;;;;;;41.45;13.20;;;;;;;-5.14;67.37;99810.47;5031213;28;20056;-63
2023/12/11 07:36:10;;;;;;;38.13;12.82;;;;;;;-5.17;67.68;99823.66;4998710;28;20037;-63
2023/12/11 07:38:36;;;;;;;31.73;12.20;;;;;;;-5.14;67.51;99823.41;5032478;28;20041;-62
2023/12/11 07:41:02;;;;;;;29.95;12.00;;;;;;;-5.15;67.74;99819.16;5029632;28;20495;-63
2023/12/11 07:43:28;;;;;;;27.45;11.65;;;;;;;-5.06;67.58;99818.38;5032110;28;20570;-62
2023/12/11 07:45:53;;;;;;;18.35;9.95;;;;;;;-5.03;67.66;99806.06;5028358;28;20136;-64
2023/12/11 07:48:19;;;;;;;18.27;8.65;;;;;;;-5.10;66.71;99798.91;5031015;28;20049;-64
2023/12/11 07:50:45;;;;;;;18.88;8.65;;;;;;;-5.08;67.26;99802.22;5031572;28;20045;-62
2023/12/11 07:53:11;;;;;;;22.08;9.45;;;;;;;-4.94;67.30;99808.81;5029193;28;20045;-63
2023/12/11 07:55:37;;;;;;;18.88;9.23;;;;;;;-4.85;67.12;99803.69;5026068;28;20048;-64
2023/12/11 07:58:03;;;;;;;16.10;8.00;;;;;;;-4.94;66.64;99790.69;5030682;28;20053;-61
2023/12/11 08:00:29;;;;;;;16.15;8.38;;;;;;;-4.87;67.31;99797.81;4997395;28;20280;-63
2023/12/11 08:02:56;;;;;;;22.27;8.82;;;;;;;-4.81;67.14;99786.16;5032629;28;20136;-59
2023/12/11 08:05:22;;;;;;;15.43;6.90;;;;;;;-4.92;66.61;99786.22;4992590;28;20060;-62
2023/12/11 08:07:47;;;;;;;19.23;8.52;;;;;;;-4.93;67.72;99787.19;5031850;28;20491;-61
2023/12/11 08:10:14;;;;;;;12.32;7.95;;;;;;;-4.97;66.98;99783.19;5006068;28;20503;-62
2023/12/11 08:12:40;;;;;;;16.30;7.88;;;;;;;-4.99;67.31;99791.09;5013695;28;20049;-62
2023/12/11 08:15:06;;;;;;;20.90;9.35;;;;;;;-4.89;67.86;99784.19;5030669;28;20479;-61
2023/12/11 08:17:32;;;;;;;17.85;8.32;;;;;;;-4.90;67.54;99785.16;5031722;28;20049;-61
2023/12/11 08:19:57;;;;;;;19.13;8.57;;;;;;;-4.96;66.40;99769.34;5031146;28;20594;-63
2023/12/11 08:22:24;;;;;;;15.98;8.60;;;;;;;-4.83;67.63;99775.94;5031438;28;20041;-61
2023/12/11 08:24:50;;;;;;;13.55;7.72;;;;;;;-4.84;66.86;99773.47;5030933;28;20057;-62
2023/12/11 08:27:16;;;;;;;17.17;7.80;;;;;;;-4.87;66.94;99771.97;5030210;28;20049;-60
2023/12/11 08:29:41;;;;;;;15.40;8.60;;;;;;;-4.86;66.37;99759.84;5031286;28;20033;-62
2023/12/11 08:32:07;;;;;;;21.90;8.88;;;;;;;-4.83;66.90;99764.75;5031281;28;20056;-62
2023/12/11 08:34:33;;;;;;;16.05;8.15;;;;;;;-4.85;65.84;99757.16;5030655;28;20136;-61
2023/12/11 08:36:59;;;;;;;14.55;7.22;;;;;;;-4.85;66.49;99757.16;5016782;28;20041;-62
2023/12/11 08:39:24;;;;;;;14.18;7.60;;;;;;;-4.85;66.45;99753.75;5007836;28;20046;-62
2023/12/11 08:41:50;;;;;;;19.75;8.30;;;;;;;-4.72;66.00;99754.34;5011489;28;20180;-63
2023/12/11 08:44:16;;;;;;;16.50;7.97;;;;;;;-4.57;66.16;99741.88;5023966;28;20049;-60
2023/12/11 08:46:43;;;;;;;17.85;7.72;;;;;;;-4.51;65.60;99745.69;5029804;28;20593;-63
2023/12/11 08:49:10;;;;;;;18.00;9.00;;;;;;;-4.37;64.98;99751.31;5030883;28;20050;-61
2023/12/11 08:51:36;;;;;;;16.63;7.78;;;;;;;-4.27;65.72;99751.34;5029840;28;20050;-61
2023/12/11 08:54:02;;;;;;;16.50;8.10;;;;;;;-4.25;65.75;99748.63;5029554;28;20061;-62
2023/12/11 08:56:27;;;;;;;13.55;7.22;;;;;;;-4.25;66.16;99744.25;5030438;28;20064;-63
2023/12/11 08:58:53;;;;;;;14.80;7.38;;;;;;;-4.34;65.71;99727.75;5013016;28;20126;-61
2023/12/11 09:01:19;;;;;;;12.60;7.00;;;;;;;-4.28;65.84;99723.00;5032764;28;20406;-64
2023/12/11 09:03:45;;;;;;;13.38;7.25;;;;;;;-4.36;65.10;99724.47;5035502;28;20052;-62
2023/12/11 09:06:13;;;;;;;14.30;7.55;;;;;;;-4.37;66.07;99714.28;5026463;28;20498;-61
2023/12/11 09:08:39;;;;;;;13.60;7.07;;;;;;;-4.45;65.72;99714.13;5017504;28;20065;-61
2023/12/11 09:11:05;;;;;;;13.38;7.22;;;;;;;-4.47;65.91;99696.16;5032958;28;20038;-60
2023/12/11 09:13:40;;;;;;;15.85;7.70;;;;;;;-4.49;65.81;99705.81;5034016;28;20056;-62
2023/12/11 09:16:24;;;;;;;15.25;7.43;;;;;;;-4.56;66.98;99696.91;4977975;28;20127;-60
2023/12/11 09:18:50;;;;;;;15.07;7.05;;;;;;;-4.58;66.47;99704.03;5035037;28;20495;-60
2023/12/11 09:21:26;;;;;;;15.07;7.90;;;;;;;-4.74;66.24;99691.56;5027739;28;20163;-61
2023/12/11 09:24:00;;;;;;;19.50;7.53;;;;;;;-4.74;67.20;99695.94;5000302;28;20414;-60
2023/12/11 09:26:27;;;;;;;18.77;7.28;;;;;;;-4.84;66.72;99685.56;4991792;28;20061;-62
2023/12/11 09:28:52;;;;;;;15.85;7.80;;;;;;;-4.87;66.83;99681.47;4995565;28;20062;-61
2023/12/11 09:31:19;;;;;;;17.15;6.10;;;;;;;-4.94;67.40;99688.13;4994037;28;20519;-62
2023/12/11 09:33:45;;;;;;;14.10;7.38;;;;;;;-4.95;67.20;99686.47;4995126;28;20077;-62
2023/12/11 09:36:11;;;;;;;15.07;7.82;;;;;;;-4.95;68.04;99672.72;4993973;28;20575;-62
2023/12/11 09:38:37;;;;;;;20.70;8.25;;;;;;;-5.02;67.85;99668.06;4992758;28;20054;-61
2023/12/11 09:41:04;;;;;;;14.90;7.35;;;;;;;-4.99;68.64;99667.00;5009118;28;20176;-61
2023/12/11 09:43:29;;;;;;;11.10;6.60;;;;;;;-5.03;67.83;99669.03;4995326;28;20049;-59
2023/12/11 09:45:55;;;;;;;18.17;7.85;;;;;;;-5.11;68.85;99660.28;4993818;28;20038;-62
2023/12/11 09:48:21;;;;;;;17.55;7.97;;;;;;;-5.09;68.90;99660.97;4977440;28;20052;-62
2023/12/11 09:50:47;;;;;;;12.40;7.22;;;;;;;-5.09;68.45;99659.22;4999238;28;20030;-65
2023/12/11 09:53:13;;;;;;;11.38;7.07;;;;;;;-5.10;68.05;99659.34;4959458;28;20542;-61
2023/12/11 09:55:39;;;;;;;16.05;6.68;;;;;;;-5.05;68.34;99662.34;4985052;28;20138;-63
2023/12/11 09:58:06;;;;;;;19.60;7.65;;;;;;;-5.06;68.37;99661.53;4995520;28;20073;-60
2023/12/11 10:00:32;;;;;;;19.17;6.05;;;;;;;-5.15;68.05;99657.13;5010863;28;20121;-62
2023/12/11 10:03:00;;;;;;;15.43;6.97;;;;;;;-5.23;68.72;99662.16;4978324;28;20046;-62
2023/12/11 10:05:26;;;;;;;19.48;7.68;;;;;;;-5.24;69.04;99655.31;4994493;28;20089;-61
2023/12/11 10:07:51;;;;;;;19.80;6.72;;;;;;;-5.25;68.87;99657.09;4996086;28;20496;-62
2023/12/11 10:10:27;;;;;;;21.95;7.10;;;;;;;-5.16;68.97;99670.19;4994941;28;20046;-63
2023/12/11 10:12:54;;;;;;;16.40;6.18;;;;;;;-5.21;68.58;99654.25;4992514;28;20121;-61
2023/12/11 10:15:25;;;;;;;17.30;8.07;;;;;;;-5.22;69.24;99650.03;4994386;28;20038;-63
2023/12/11 10:18:02;;;;;;;15.48;7.53;;;;;;;-5.23;69.50;99651.81;4993294;28;20061;-62
2023/12/11 10:20:28;;;;;;;17.55;7.43;;;;;;;-5.18;69.54;99638.47;4993863;28;20054;-63
2023/12/11 10:22:53;;;;;;;15.07;6.47;;;;;;;-5.32;69.19;99637.09;4992763;28;20058;-62
2023/12/11 10:25:40;;;;;;;12.98;6.07;;;;;;;-5.32;69.59;99634.50;5008413;28;20059;-60
2023/12/11 10:28:08;;;;;;;21.20;7.97;;;;;;;-5.26;69.96;99639.16;5032577;28;20050;-62
2023/12/11 10:30:52;;;;;;;15.98;7.10;;;;;;;-5.22;69.22;99650.84;5032799;28;20037;-62
2023/12/11 10:33:19;;;;;;;17.75;7.60;;;;;;;-5.22;69.73;99648.28;5033285;28;20057;-61
2023/12/11 10:35:45;;;;;;;13.73;6.63;;;;;;;-5.18;69.40;99649.63;5031405;28;20539;-60
2023/12/11 10:38:20;;;;;;;15.38;7.38;;;;;;;-5.29;69.25;99657.50;4996217;28;20046;-61
2023/12/11 10:40:45;;;;;;;14.13;6.07;;;;;;;-5.44;69.83;99648.44;5024612;28;20103;-61
2023/12/11 10:43:11;;;;;;;20.00;7.38;;;;;;;-5.41;70.38;99648.16;5033244;28;20049;-61
2023/12/11 10:45:37;;;;;;;14.95;6.90;;;;;;;-5.34;69.79;99642.38;5031515;28;20045;-62
2023/12/11 10:48:03;;;;;;;18.00;7.22;;;;;;;-5.37;68.95;99634.88;5033267;28;20132;-62
2023/12/11 10:50:31;;;;;;;27.08;7.57;;;;;;;-5.22;70.02;99639.69;5032635;28;20487;-61
2023/12/11 10:53:00;;;;;;;17.67;6.75;;;;;;;-5.18;68.56;99635.91;5013880;28;20045;-63
2023/12/11 10:55:26;;;;;;;10.90;6.20;;;;;;;-5.16;68.87;99631.44;4996298;28;20045;-60
2023/12/11 10:57:52;;;;;;;14.88;6.85;;;;;;;-5.19;68.80;99632.50;5032840;28;20061;-59
2023/12/11 11:00:20;;;;;;;16.88;6.63;;;;;;;-5.09;68.57;99623.03;5029528;28;20041;-61
2023/12/11 11:02:50;;;;;;;14.90;6.70;;;;;;;-4.99;68.57;99628.22;5002746;28;20053;-60
2023/12/11 11:05:17;;;;;;;16.35;6.88;;;;;;;-4.95;68.15;99628.78;5004311;28;20057;-62
2023/12/11 11:08:25;;;;;;;14.68;6.03;;;;;;;-4.91;67.47;99623.22;5018481;28;20069;-62
2023/12/11 11:10:57;;;;;;;13.13;6.13;;;;;;;-4.87;66.89;99616.00;5024484;28;20458;-60
2023/12/11 11:13:29;;;;;;;13.77;6.55;;;;;;;-5.03;67.05;99611.31;5015004;28;20079;-60
2023/12/11 11:15:55;;;;;;;15.93;7.75;;;;;;;-4.97;67.77;99623.75;5031055;28;20522;-62
2023/12/11 11:18:21;;;;;;;16.08;6.75;;;;;;;-4.93;67.68;99601.84;5032618;28;20165;-62
2023/12/11 11:21:12;;;;;;;15.60;7.47;;;;;;;-4.97;66.54;99607.41;5023905;28;20092;-61